Time;durP1;ratioP1;P1;durP2;ratioP2;P2;SDS_P1;SDS_P2;PMS_P1;PMS_P2;Temp;Humidity;BMP_temperature;BMP_pressure;BME280_temperature;BME280_humidity;BME280_pressure;Samples;Min_cycle;Max_cycle;Signal;HPM_P1;HPM_P2
2021/10/08 00:00:31;;;;;;;14.50;9.48;;;7.60;99.90;;;;;;5093227;28;20035;-72
2021/10/08 00:02:57;;;;;;;13.35;9.93;;;7.60;99.90;;;;;;5093716;28;20506;-72
2021/10/08 00:05:23;;;;;;;10.82;8.48;;;7.60;99.90;;;;;;5093417;28;20447;-72
2021/10/08 00:07:48;;;;;;;10.75;8.95;;;7.50;99.90;;;;;;5092570;28;20047;-72
2021/10/08 00:10:14;;;;;;;10.55;8.80;;;7.50;99.90;;;;;;5093490;28;20036;-72
2021/10/08 00:12:40;;;;;;;12.82;8.93;;;7.40;99.90;;;;;;5093112;28;20036;-72
2021/10/08 00:15:06;;;;;;;11.13;8.68;;;7.30;99.90;;;;;;5092131;28;20040;-72
2021/10/08 00:17:31;;;;;;;12.15;9.27;;;7.40;99.90;;;;;;5093412;28;20046;-72
2021/10/08 00:19:57;;;;;;;13.25;9.10;;;7.30;99.90;;;;;;5093223;28;20107;-72
2021/10/08 00:22:23;;;;;;;13.32;9.23;;;7.40;99.90;;;;;;5093147;28;20189;-72
2021/10/08 00:24:48;;;;;;;11.90;9.48;;;7.40;99.90;;;;;;5092455;28;20038;-72
2021/10/08 00:27:14;;;;;;;12.02;8.90;;;7.40;99.90;;;;;;5092216;28;20097;-72
2021/10/08 00:29:39;;;;;;;9.48;8.13;;;7.30;99.90;;;;;;5093062;28;20127;-72
2021/10/08 00:32:05;;;;;;;9.63;7.88;;;7.30;99.90;;;;;;5092234;28;20047;-72
2021/10/08 00:34:30;;;;;;;10.48;8.50;;;7.30;99.90;;;;;;5093483;28;20044;-72
2021/10/08 00:36:56;;;;;;;12.45;9.35;;;7.40;99.90;;;;;;5093173;28;20045;-72
2021/10/08 00:39:22;;;;;;;11.75;8.50;;;7.40;99.90;;;;;;5092917;28;20404;-72
2021/10/08 00:41:47;;;;;;;12.90;9.23;;;7.40;99.90;;;;;;5093029;28;20047;-72
2021/10/08 00:44:13;;;;;;;13.93;9.52;;;7.40;99.90;;;;;;5093033;28;20086;-72
2021/10/08 00:46:39;;;;;;;15.55;9.88;;;7.40;99.90;;;;;;5093210;28;20043;-72
2021/10/08 00:49:05;;;;;;;18.50;9.85;;;7.40;99.90;;;;;;5092905;28;20044;-72
2021/10/08 00:51:30;;;;;;;17.25;10.05;;;7.40;99.90;;;;;;5093133;28;20075;-72
2021/10/08 00:53:56;;;;;;;18.02;9.80;;;7.40;99.90;;;;;;5093027;28;20395;-72
2021/10/08 00:56:22;;;;;;;15.27;9.70;;;7.30;99.90;;;;;;5093482;28;20089;-72
2021/10/08 00:58:50;;;;;;;14.63;9.93;;;7.30;99.90;;;;;;5092940;28;20036;-72
2021/10/08 01:01:16;;;;;;;15.93;10.05;;;7.30;99.90;;;;;;5093090;28;20123;-72
2021/10/08 01:03:42;;;;;;;15.55;10.48;;;7.30;99.90;;;;;;5092121;28;20409;-72
2021/10/08 01:06:09;;;;;;;15.27;10.18;;;7.30;99.90;;;;;;5093200;28;20124;-72
2021/10/08 01:08:34;;;;;;;14.40;9.32;;;7.20;99.90;;;;;;5091613;28;20075;-72
2021/10/08 01:11:01;;;;;;;12.30;8.93;;;7.20;99.90;;;;;;5093173;28;20080;-72
2021/10/08 01:13:27;;;;;;;13.73;9.70;;;7.20;99.90;;;;;;5092663;28;20055;-72
2021/10/08 01:15:54;;;;;;;10.45;8.23;;;7.20;99.90;;;;;;5092703;28;20380;-72
2021/10/08 01:18:19;;;;;;;9.02;7.80;;;7.10;99.90;;;;;;5092915;28;20047;-72
2021/10/08 01:20:45;;;;;;;10.60;8.50;;;7.10;99.90;;;;;;5092680;28;20036;-72
2021/10/08 01:23:11;;;;;;;11.10;8.45;;;7.00;99.90;;;;;;5095148;28;20039;-72
2021/10/08 01:25:38;;;;;;;16.50;9.68;;;7.00;99.90;;;;;;5096318;28;20036;-72
2021/10/08 01:28:05;;;;;;;12.02;9.10;;;7.10;99.90;;;;;;5096408;28;20044;-72
2021/10/08 01:30:31;;;;;;;21.05;8.30;;;7.10;99.90;;;;;;5095907;28;20044;-72
2021/10/08 01:32:57;;;;;;;14.93;8.93;;;7.00;99.90;;;;;;5096320;28;20040;-72
2021/10/08 01:35:23;;;;;;;27.70;9.57;;;7.00;99.90;;;;;;5096563;28;20483;-72
2021/10/08 01:37:48;;;;;;;11.25;8.23;;;7.00;99.90;;;;;;5095242;28;20055;-72
2021/10/08 01:40:16;;;;;;;19.90;9.25;;;7.00;99.90;;;;;;5095696;28;20115;-72
2021/10/08 01:42:42;;;;;;;14.50;10.00;;;7.00;99.90;;;;;;5096220;28;20043;-72
2021/10/08 01:45:09;;;;;;;15.95;10.48;;;7.00;99.90;;;;;;5094865;28;20047;-72
2021/10/08 01:47:35;;;;;;;16.15;10.15;;;7.10;99.90;;;;;;5096390;28;20058;-72
2021/10/08 01:50:00;;;;;;;14.43;10.55;;;7.10;99.90;;;;;;5095953;28;20532;-72
2021/10/08 01:52:26;;;;;;;13.27;9.75;;;7.10;99.90;;;;;;5094505;28;20039;-72
2021/10/08 01:54:52;;;;;;;12.27;9.38;;;7.10;99.90;;;;;;5096108;28;20438;-72
2021/10/08 01:57:17;;;;;;;13.13;9.23;;;7.00;99.90;;;;;;5096006;28;20032;-72
2021/10/08 01:59:43;;;;;;;14.98;9.50;;;7.00;99.90;;;;;;5094399;28;20109;-72
2021/10/08 02:02:09;;;;;;;12.65;8.80;;;7.00;99.90;;;;;;5095532;28;20536;-72
2021/10/08 02:04:35;;;;;;;11.70;9.35;;;7.00;99.90;;;;;;5095787;28;20087;-72
2021/10/08 02:07:00;;;;;;;11.88;9.00;;;7.00;99.90;;;;;;5095793;28;20032;-72
2021/10/08 02:09:26;;;;;;;12.63;9.88;;;7.00;99.90;;;;;;5095110;28;20115;-72
2021/10/08 02:11:52;;;;;;;12.00;9.30;;;7.00;99.90;;;;;;5095496;28;20452;-72
2021/10/08 02:14:18;;;;;;;13.43;10.07;;;7.00;99.90;;;;;;5094196;28;20554;-72
2021/10/08 02:16:43;;;;;;;12.95;9.63;;;7.00;99.90;;;;;;5094016;28;20040;-72
2021/10/08 02:19:09;;;;;;;14.57;8.98;;;7.00;99.90;;;;;;5095010;28;20028;-72
2021/10/08 02:21:35;;;;;;;11.57;9.20;;;7.00;99.90;;;;;;5095255;28;20488;-72
2021/10/08 02:24:01;;;;;;;13.20;9.60;;;6.90;99.90;;;;;;5095150;28;20025;-72
2021/10/08 02:26:27;;;;;;;14.10;9.85;;;6.90;99.90;;;;;;5095206;28;20562;-72
2021/10/08 02:28:53;;;;;;;11.02;8.70;;;6.90;99.90;;;;;;5095112;28;20122;-72
2021/10/08 02:31:19;;;;;;;21.75;10.02;;;6.90;99.90;;;;;;5094987;28;20487;-72
2021/10/08 02:33:45;;;;;;;15.30;9.73;;;6.80;99.90;;;;;;5094374;28;20036;-72
2021/10/08 02:36:11;;;;;;;25.98;11.23;;;6.80;99.90;;;;;;5093601;28;20442;-72
2021/10/08 02:38:38;;;;;;;13.98;9.70;;;6.80;99.90;;;;;;5093229;28;20048;-72
2021/10/08 02:41:04;;;;;;;12.30;9.27;;;6.80;99.90;;;;;;5093549;28;20114;-72
2021/10/08 02:43:30;;;;;;;11.85;9.18;;;6.80;99.90;;;;;;5094770;28;20036;-72
2021/10/08 02:45:56;;;;;;;12.20;8.98;;;6.80;99.90;;;;;;5094850;28;20565;-72
2021/10/08 02:48:22;;;;;;;14.32;10.95;;;6.90;99.90;;;;;;5094697;28;20035;-72
2021/10/08 02:50:48;;;;;;;15.00;10.57;;;6.90;99.90;;;;;;5094666;28;20535;-72
2021/10/08 02:53:13;;;;;;;12.52;9.32;;;6.90;99.90;;;;;;5094399;28;20076;-72
2021/10/08 02:55:39;;;;;;;11.55;9.15;;;7.00;99.90;;;;;;5093279;28;20079;-72
2021/10/08 02:58:04;;;;;;;11.48;8.77;;;7.00;99.90;;;;;;5094687;28;20032;-72
2021/10/08 03:00:30;;;;;;;12.45;9.02;;;7.00;99.90;;;;;;5094087;28;20433;-72
2021/10/08 03:02:56;;;;;;;11.32;9.00;;;7.00;99.90;;;;;;5094886;28;20036;-72
2021/10/08 03:05:21;;;;;;;13.27;9.68;;;7.00;99.90;;;;;;5094746;28;20028;-72
2021/10/08 03:07:47;;;;;;;14.20;10.23;;;7.00;99.90;;;;;;5093047;28;20476;-72
2021/10/08 03:10:15;;;;;;;14.48;10.27;;;7.00;99.90;;;;;;5094099;28;20177;-72
2021/10/08 03:12:41;;;;;;;18.67;10.18;;;7.00;99.90;;;;;;5092885;28;20075;-72
2021/10/08 03:15:07;;;;;;;15.45;10.48;;;7.00;99.90;;;;;;5094254;28;20051;-71
2021/10/08 03:17:33;;;;;;;16.60;11.25;;;7.10;99.90;;;;;;5094245;28;20036;-72
2021/10/08 03:19:59;;;;;;;15.05;11.27;;;7.10;99.90;;;;;;5093111;28;20040;-72
2021/10/08 03:22:24;;;;;;;16.05;10.95;;;7.00;99.90;;;;;;5094113;28;20087;-72
2021/10/08 03:24:50;;;;;;;15.73;10.88;;;7.00;99.90;;;;;;5094051;28;20476;-72
2021/10/08 03:27:16;;;;;;;12.02;9.18;;;7.00;99.90;;;;;;5094139;28;20032;-72
2021/10/08 03:29:41;;;;;;;14.07;10.88;;;7.00;99.90;;;;;;5094003;28;20040;-72
2021/10/08 03:32:07;;;;;;;11.02;8.88;;;7.00;99.90;;;;;;5092620;28;20389;-72
2021/10/08 03:34:34;;;;;;;9.88;8.48;;;7.00;99.90;;;;;;5093991;28;20071;-72
2021/10/08 03:37:02;;;;;;;12.20;9.38;;;7.00;99.90;;;;;;5093857;28;20068;-72
2021/10/08 03:39:32;;;;;;;12.48;9.10;;;6.90;99.90;;;;;;5075493;28;20078;-72
2021/10/08 03:41:58;;;;;;;10.80;8.50;;;6.90;99.90;;;;;;5093642;28;20055;-72
2021/10/08 03:44:23;;;;;;;10.25;8.38;;;6.90;99.90;;;;;;5093885;28;20044;-72
2021/10/08 03:46:51;;;;;;;12.30;8.65;;;6.80;99.90;;;;;;5092773;28;20036;-72
2021/10/08 03:49:18;;;;;;;10.60;8.93;;;6.80;99.90;;;;;;5093373;28;20604;-72
2021/10/08 03:51:46;;;;;;;10.60;8.57;;;6.80;99.90;;;;;;5093370;28;20123;-72
2021/10/08 03:54:13;;;;;;;11.70;8.82;;;6.70;99.90;;;;;;5093786;28;20078;-72
2021/10/08 03:56:40;;;;;;;10.77;8.38;;;6.70;99.90;;;;;;5093513;28;20089;-72
2021/10/08 03:59:06;;;;;;;13.60;8.93;;;6.70;99.90;;;;;;5093353;28;20438;-72
2021/10/08 04:01:32;;;;;;;9.45;7.95;;;6.70;99.90;;;;;;5093429;28;20123;-72
2021/10/08 04:03:58;;;;;;;10.43;8.35;;;6.70;99.90;;;;;;5093983;28;20106;-72
2021/10/08 04:06:24;;;;;;;11.77;8.90;;;6.70;99.90;;;;;;5093446;28;20494;-72
2021/10/08 04:08:50;;;;;;;11.82;9.18;;;6.70;99.90;;;;;;5093045;28;20438;-72
2021/10/08 04:11:16;;;;;;;11.18;8.77;;;6.70;99.90;;;;;;5093314;28;20039;-72
2021/10/08 04:13:42;;;;;;;10.57;8.55;;;6.70;99.90;;;;;;5093806;28;20391;-72
2021/10/08 04:16:07;;;;;;;12.10;8.10;;;6.60;99.90;;;;;;5091902;28;20523;-72
2021/10/08 04:18:33;;;;;;;11.85;7.40;;;6.60;99.90;;;;;;5093470;28;20040;-72
2021/10/08 04:20:59;;;;;;;10.02;7.80;;;6.50;99.90;;;;;;5093380;28;20043;-72
2021/10/08 04:23:24;;;;;;;11.38;9.18;;;6.50;99.90;;;;;;5093476;28;20040;-72
2021/10/08 04:25:51;;;;;;;9.75;7.80;;;6.50;99.90;;;;;;5093288;28;20050;-72
2021/10/08 04:28:17;;;;;;;10.40;8.52;;;6.50;99.90;;;;;;5093271;28;20127;-72
2021/10/08 04:30:42;;;;;;;11.02;8.40;;;6.50;99.90;;;;;;5092940;28;20083;-72
2021/10/08 04:33:20;;;;;;;10.90;8.38;;;6.40;99.90;;;;;;5093221;28;20047;-72
2021/10/08 04:35:46;;;;;;;10.68;8.70;;;6.40;99.90;;;;;;5091986;28;20491;-72
2021/10/08 04:38:11;;;;;;;10.60;8.38;;;6.40;99.90;;;;;;5093071;28;20040;-72
2021/10/08 04:40:37;;;;;;;10.40;8.10;;;6.40;99.90;;;;;;5092981;28;20461;-72
2021/10/08 04:43:04;;;;;;;9.32;8.32;;;6.40;99.90;;;;;;5093158;28;20051;-72
2021/10/08 04:45:29;;;;;;;10.32;8.20;;;6.40;99.90;;;;;;5092165;28;20048;-72
2021/10/08 04:47:56;;;;;;;12.60;7.95;;;6.40;99.90;;;;;;5091906;28;20052;-71
2021/10/08 04:50:22;;;;;;;11.18;8.35;;;6.40;99.90;;;;;;5092707;28;20042;-70
2021/10/08 04:52:48;;;;;;;9.88;7.60;;;6.40;99.90;;;;;;5093338;28;20123;-71
2021/10/08 04:55:13;;;;;;;10.68;7.82;;;6.40;99.90;;;;;;5092998;28;20040;-71
2021/10/08 04:57:39;;;;;;;10.63;8.13;;;6.40;99.90;;;;;;5095347;28;20039;-71
2021/10/08 05:00:06;;;;;;;9.85;7.93;;;6.30;99.90;;;;;;5096493;28;20531;-71
2021/10/08 05:02:32;;;;;;;10.57;7.90;;;6.30;99.90;;;;;;5096671;28;20134;-71
2021/10/08 05:04:57;;;;;;;11.05;8.43;;;6.30;99.90;;;;;;5097052;28;20068;-71
2021/10/08 05:07:23;;;;;;;9.95;8.07;;;6.30;99.90;;;;;;5096896;28;20105;-71
2021/10/08 05:09:49;;;;;;;9.85;7.93;;;6.20;99.90;;;;;;5095005;28;20381;-71
2021/10/08 05:12:15;;;;;;;10.70;8.20;;;6.30;99.90;;;;;;5095336;28;20043;-71
2021/10/08 05:14:40;;;;;;;10.02;8.02;;;6.20;99.90;;;;;;5096454;28;20032;-71
2021/10/08 05:17:06;;;;;;;11.02;8.48;;;6.30;99.90;;;;;;5096372;28;20096;-70
2021/10/08 05:19:32;;;;;;;10.68;7.30;;;6.30;99.90;;;;;;5096312;28;20036;-70
2021/10/08 05:21:57;;;;;;;8.27;6.40;;;6.30;99.90;;;;;;5095035;28;20377;-71
2021/10/08 05:24:23;;;;;;;10.23;8.20;;;6.30;99.90;;;;;;5095230;28;20044;-70
2021/10/08 05:26:51;;;;;;;9.75;7.53;;;6.20;99.90;;;;;;5096650;28;20499;-71
2021/10/08 05:29:17;;;;;;;8.40;6.72;;;6.20;99.90;;;;;;5095540;28;20051;-71
2021/10/08 05:31:43;;;;;;;11.68;7.88;;;6.20;99.90;;;;;;5096644;28;20052;-71
2021/10/08 05:34:11;;;;;;;10.20;7.43;;;6.20;99.90;;;;;;5096591;28;20043;-71
2021/10/08 05:36:37;;;;;;;9.88;5.93;;;6.10;99.90;;;;;;5096434;28;20040;-70
2021/10/08 05:39:04;;;;;;;11.98;8.07;;;6.10;99.90;;;;;;5095974;28;20047;-71
2021/10/08 05:41:29;;;;;;;13.55;7.45;;;6.10;99.90;;;;;;5094944;28;20036;-71
2021/10/08 05:43:55;;;;;;;12.85;7.88;;;6.00;99.90;;;;;;5095649;28;20111;-71
2021/10/08 05:46:20;;;;;;;9.52;6.68;;;5.80;99.90;;;;;;5094705;28;20036;-71
2021/10/08 05:48:46;;;;;;;10.05;7.78;;;5.80;99.90;;;;;;5095547;28;20067;-71
2021/10/08 05:51:12;;;;;;;8.98;6.85;;;5.80;99.90;;;;;;5095815;28;20046;-71
2021/10/08 05:53:37;;;;;;;13.15;7.85;;;5.80;99.90;;;;;;5096268;28;20043;-71
2021/10/08 05:56:03;;;;;;;13.75;8.10;;;5.70;99.90;;;;;;5094709;28;20484;-71
2021/10/08 05:58:29;;;;;;;14.82;9.40;;;5.80;99.90;;;;;;5095582;28;20040;-71
2021/10/08 06:00:54;;;;;;;13.98;9.60;;;5.80;99.90;;;;;;5094493;28;20040;-71
2021/10/08 06:03:20;;;;;;;24.13;9.35;;;5.80;99.90;;;;;;5095606;28;20039;-71
2021/10/08 06:05:46;;;;;;;15.25;8.23;;;5.80;99.90;;;;;;5094606;28;20040;-71
2021/10/08 06:08:12;;;;;;;9.70;7.15;;;5.80;99.90;;;;;;5095352;28;20044;-71
2021/10/08 06:10:38;;;;;;;12.13;7.60;;;5.70;99.90;;;;;;5093840;28;20085;-71
2021/10/08 06:13:04;;;;;;;20.33;8.85;;;5.70;99.90;;;;;;5094058;28;20044;-71
2021/10/08 06:15:30;;;;;;;15.27;9.18;;;5.70;99.90;;;;;;5077396;28;20050;-71
2021/10/08 06:17:58;;;;;;;12.10;8.32;;;5.80;99.90;;;;;;5095423;28;20110;-71
2021/10/08 06:20:26;;;;;;;13.18;8.63;;;5.80;99.90;;;;;;5094097;28;20407;-71
2021/10/08 06:22:52;;;;;;;15.23;9.80;;;5.90;99.90;;;;;;5095402;28;20043;-71
2021/10/08 06:25:19;;;;;;;14.80;9.25;;;5.90;99.90;;;;;;5095246;28;20098;-71
2021/10/08 06:27:46;;;;;;;16.13;10.30;;;6.00;99.90;;;;;;5093897;28;20036;-71
2021/10/08 06:30:12;;;;;;;17.90;10.93;;;6.00;99.90;;;;;;5094829;28;20044;-71
2021/10/08 06:32:38;;;;;;;19.55;12.00;;;6.10;99.90;;;;;;5093809;28;20044;-70
2021/10/08 06:35:05;;;;;;;19.77;11.57;;;6.10;99.90;;;;;;5094035;28;20092;-71
2021/10/08 06:37:30;;;;;;;14.93;10.10;;;6.20;99.90;;;;;;5095472;28;20099;-71
2021/10/08 06:39:56;;;;;;;26.80;13.00;;;6.20;99.90;;;;;;5094582;28;20050;-71
2021/10/08 06:42:24;;;;;;;30.33;14.82;;;6.30;99.90;;;;;;5094834;28;20032;-71
2021/10/08 06:44:55;;;;;;;23.08;13.90;;;6.30;99.90;;;;;;5094836;28;20048;-71
2021/10/08 06:47:21;;;;;;;25.33;14.82;;;6.30;99.90;;;;;;5095057;28;20423;-71
2021/10/08 06:49:47;;;;;;;53.45;16.33;;;6.40;99.90;;;;;;5093796;28;20036;-71
2021/10/08 06:52:12;;;;;;;58.08;16.85;;;6.30;99.90;;;;;;5095051;28;20048;-71
2021/10/08 06:54:38;;;;;;;46.53;17.38;;;6.40;99.90;;;;;;5095102;28;20040;-71
2021/10/08 06:57:04;;;;;;;67.75;17.33;;;6.40;99.90;;;;;;5093183;28;20035;-71
2021/10/08 06:59:29;;;;;;;21.52;14.45;;;6.40;99.90;;;;;;5094586;28;20329;-71
2021/10/08 07:01:55;;;;;;;27.08;15.82;;;6.50;99.90;;;;;;5094863;28;20036;-71
2021/10/08 07:04:21;;;;;;;27.60;17.23;;;6.60;99.90;;;;;;5094701;28;20044;-71
2021/10/08 07:06:47;;;;;;;31.13;15.68;;;6.70;99.90;;;;;;5094492;28;20039;-71
2021/10/08 07:09:12;;;;;;;30.63;16.20;;;6.70;99.90;;;;;;5093080;28;20071;-71
2021/10/08 07:11:38;;;;;;;38.90;16.17;;;6.80;99.90;;;;;;5092998;28;20087;-71
2021/10/08 07:14:04;;;;;;;35.42;17.85;;;6.90;99.90;;;;;;5093141;28;20071;-71
2021/10/08 07:16:30;;;;;;;38.72;19.13;;;7.00;99.90;;;;;;5094215;28;20074;-71
2021/10/08 07:18:58;;;;;;;31.52;17.42;;;7.10;99.90;;;;;;5093982;28;20036;-71
2021/10/08 07:21:24;;;;;;;30.67;17.95;;;7.10;99.90;;;;;;5093564;28;20050;-71
2021/10/08 07:23:51;;;;;;;40.38;19.77;;;7.20;99.90;;;;;;5094132;28;20047;-70
2021/10/08 07:26:18;;;;;;;39.13;19.27;;;7.30;99.90;;;;;;5093032;28;20050;-70
2021/10/08 07:28:44;;;;;;;41.22;19.40;;;7.30;99.90;;;;;;5093860;28;20046;-71
2021/10/08 07:31:10;;;;;;;40.03;21.00;;;7.40;99.90;;;;;;5093938;28;20046;-70
2021/10/08 07:33:37;;;;;;;34.88;18.40;;;7.40;99.90;;;;;;5093451;28;20101;-70
2021/10/08 07:36:03;;;;;;;39.72;19.48;;;7.50;99.90;;;;;;5093886;28;20036;-70
2021/10/08 07:38:29;;;;;;;81.63;21.58;;;7.60;99.90;;;;;;5093500;28;20078;-71
2021/10/08 07:40:55;;;;;;;76.32;21.58;;;7.60;99.90;;;;;;5094313;28;20143;-71
2021/10/08 07:43:20;;;;;;;78.93;22.75;;;7.60;99.90;;;;;;5092613;28;20067;-71
2021/10/08 07:45:46;;;;;;;67.18;22.33;;;7.60;99.90;;;;;;5093718;28;20063;-71
2021/10/08 07:48:11;;;;;;;36.35;21.08;;;7.70;99.90;;;;;;5093034;28;20105;-70
2021/10/08 07:50:37;;;;;;;61.10;23.08;;;7.70;99.90;;;;;;5083953;28;20119;-70
2021/10/08 07:53:03;;;;;;;67.53;24.90;;;7.90;99.90;;;;;;5073091;28;20067;-71
2021/10/08 07:55:29;;;;;;;36.80;21.90;;;7.90;99.90;;;;;;5073517;28;20068;-71
2021/10/08 07:57:54;;;;;;;42.22;21.92;;;8.00;99.90;;;;;;5073476;28;20437;-71
2021/10/08 08:00:21;;;;;;;34.25;20.50;;;8.10;99.90;;;;;;5073132;28;20048;-71
2021/10/08 08:02:46;;;;;;;41.75;23.05;;;8.20;99.90;;;;;;5073391;28;20084;-70
2021/10/08 08:05:12;;;;;;;60.78;22.45;;;8.30;99.90;;;;;;5071947;28;20072;-70
2021/10/08 08:07:38;;;;;;;53.78;23.25;;;8.40;99.90;;;;;;5073410;28;20045;-71
2021/10/08 08:10:06;;;;;;;32.65;20.17;;;8.50;99.90;;;;;;5072829;28;20051;-71
2021/10/08 08:12:32;;;;;;;31.60;19.17;;;8.60;99.90;;;;;;5073168;28;20494;-71
2021/10/08 08:14:57;;;;;;;35.67;21.80;;;8.70;99.90;;;;;;5073060;28;20513;-71
2021/10/08 08:17:23;;;;;;;35.35;22.42;;;8.80;99.90;;;;;;5073276;28;20040;-71
2021/10/08 08:19:49;;;;;;;33.67;20.40;;;8.90;99.90;;;;;;5072629;28;20078;-70
2021/10/08 08:22:15;;;;;;;36.88;22.23;;;9.10;99.90;;;;;;5071981;28;20055;-70
2021/10/08 08:24:41;;;;;;;59.50;27.63;;;9.20;99.90;;;;;;5073245;28;20067;-71
2021/10/08 08:27:06;;;;;;;45.22;26.05;;;9.20;99.90;;;;;;5071848;28;20068;-71
2021/10/08 08:29:32;;;;;;;47.92;26.50;;;9.30;99.90;;;;;;5072785;28;20040;-71
2021/10/08 08:31:57;;;;;;;43.42;24.33;;;9.50;99.90;;;;;;5075371;28;20404;-71
2021/10/08 08:34:24;;;;;;;47.42;25.70;;;9.50;99.90;;;;;;5075952;28;20044;-71
2021/10/08 08:36:49;;;;;;;42.58;24.90;;;9.60;99.90;;;;;;5077228;28;20093;-71
2021/10/08 08:39:16;;;;;;;49.13;27.27;;;9.60;99.90;;;;;;5075541;28;20036;-72
2021/10/08 08:41:42;;;;;;;38.88;23.42;;;9.70;99.90;;;;;;5077171;28;20050;-72
2021/10/08 08:44:07;;;;;;;43.17;24.90;;;9.80;99.90;;;;;;5077137;28;20037;-71
2021/10/08 08:46:34;;;;;;;41.50;23.83;;;9.70;99.90;;;;;;5077064;28;20048;-71
2021/10/08 08:49:00;;;;;;;47.85;25.15;;;9.70;99.90;;;;;;5076369;28;20374;-71
2021/10/08 08:51:27;;;;;;;52.20;26.67;;;9.80;99.90;;;;;;5076717;28;20431;-71
2021/10/08 08:53:57;;;;;;;56.47;27.73;;;9.90;99.90;;;;;;5075658;28;20036;-71
2021/10/08 08:56:23;;;;;;;46.60;26.08;;;9.90;99.90;;;;;;5076628;28;20033;-71
2021/10/08 08:58:58;;;;;;;54.97;29.17;;;9.90;99.90;;;;;;5076219;28;20115;-71
2021/10/08 09:01:23;;;;;;;58.63;31.13;;;10.10;99.90;;;;;;5076638;28;20037;-71
2021/10/08 09:04:07;;;;;;;68.30;35.30;;;10.30;99.90;;;;;;5076293;28;20084;-71
2021/10/08 09:06:36;;;;;;;64.75;34.08;;;10.40;99.90;;;;;;5075553;28;20522;-71
2021/10/08 09:09:19;;;;;;;68.65;35.65;;;10.60;99.90;;;;;;5076062;28;20037;-71
2021/10/08 09:11:46;;;;;;;72.53;37.13;;;10.80;99.90;;;;;;5076641;28;20087;-71
2021/10/08 09:14:16;;;;;;;72.90;35.72;;;11.00;99.90;;;;;;5076853;28;20040;-71
2021/10/08 09:17:17;;;;;;;69.60;35.40;;;11.10;99.90;;;;;;5075832;28;20070;-71
2021/10/08 09:20:03;;;;;;;73.88;37.38;;;11.30;99.90;;;;;;5074692;28;20040;-71
2021/10/08 09:22:40;;;;;;;69.28;37.03;;;11.50;99.90;;;;;;5074752;28;20048;-72
2021/10/08 09:25:12;;;;;;;66.25;35.10;;;11.60;99.90;;;;;;5076388;28;20084;-71
2021/10/08 09:27:40;;;;;;;66.47;35.08;;;11.70;99.90;;;;;;5076299;28;20033;-73
2021/10/08 09:30:07;;;;;;;61.80;34.47;;;11.90;99.90;;;;;;5075977;28;20032;-74
2021/10/08 09:32:44;;;;;;;61.97;34.05;;;12.00;99.90;;;;;;5075788;28;20051;-71
2021/10/08 09:35:12;;;;;;;56.53;33.63;;;12.10;99.90;;;;;;5076140;28;20079;-72
2021/10/08 09:37:38;;;;;;;51.97;29.95;;;12.20;99.90;;;;;;5075929;28;20037;-73
2021/10/08 09:40:20;;;;;;;50.83;30.27;;;12.20;99.90;;;;;;5074310;28;20044;-73
2021/10/08 09:42:45;;;;;;;49.47;28.63;;;12.30;99.90;;;;;;5073765;28;20080;-69
2021/10/08 09:45:11;;;;;;;47.17;29.27;;;12.40;99.90;;;;;;5075537;28;20071;-72
2021/10/08 09:47:56;;;;;;;49.33;27.83;;;12.60;99.90;;;;;;5074263;28;20441;-70
2021/10/08 09:50:21;;;;;;;43.20;27.13;;;12.70;99.90;;;;;;5074051;28;20040;-70
2021/10/08 09:52:48;;;;;;;43.45;25.98;;;12.80;99.90;;;;;;5075582;28;20362;-69
2021/10/08 09:55:14;;;;;;;39.22;24.75;;;12.80;99.90;;;;;;5075939;28;20119;-69
2021/10/08 09:57:48;;;;;;;41.83;25.77;;;12.90;99.90;;;;;;5075646;28;20075;-69
2021/10/08 10:00:35;;;;;;;38.60;23.80;;;12.90;99.90;;;;;;5073852;28;20052;-69
2021/10/08 10:03:03;;;;;;;39.67;24.30;;;13.00;99.90;;;;;;5075526;28;20421;-70
2021/10/08 10:05:29;;;;;;;33.33;20.17;;;13.00;99.90;;;;;;5073315;28;20464;-70
2021/10/08 10:07:56;;;;;;;32.38;21.40;;;13.40;99.90;;;;;;5074569;28;20076;-70
2021/10/08 10:10:22;;;;;;;31.08;20.33;;;13.50;99.90;;;;;;5075657;28;20407;-70
2021/10/08 10:12:49;;;;;;;30.48;20.67;;;13.60;99.90;;;;;;5075210;28;20049;-70
2021/10/08 10:15:16;;;;;;;29.45;18.77;;;13.70;99.90;;;;;;5075407;28;20043;-69
2021/10/08 10:17:42;;;;;;;26.55;17.98;;;13.80;99.90;;;;;;5075144;28;20069;-70
2021/10/08 10:20:09;;;;;;;23.77;17.88;;;13.90;99.90;;;;;;5073990;28;20039;-70
2021/10/08 10:22:36;;;;;;;26.45;18.63;;;14.00;99.90;;;;;;5075247;28;20152;-70
2021/10/08 10:25:03;;;;;;;26.50;19.52;;;14.10;99.90;;;;;;5074398;28;20051;-69
2021/10/08 10:27:29;;;;;;;26.83;19.40;;;14.10;99.90;;;;;;5075480;28;20044;-70
2021/10/08 10:29:56;;;;;;;27.55;19.42;;;14.10;99.90;;;;;;5074581;28;20045;-70
2021/10/08 10:32:23;;;;;;;27.08;19.33;;;14.10;99.90;;;;;;5074986;28;20059;-71
2021/10/08 10:34:48;;;;;;;26.02;18.48;;;14.10;99.90;;;;;;5075291;28;20040;-70
2021/10/08 10:37:38;;;;;;;26.80;17.23;;;14.10;99.90;;;;;;5073829;28;20374;-70
2021/10/08 10:40:24;;;;;;;22.15;17.35;;;14.20;99.90;;;;;;5074546;28;20041;-70
2021/10/08 10:43:19;;;;;;;21.35;15.63;;;14.30;99.90;;;;;;5073543;28;20044;-69
2021/10/08 10:45:49;;;;;;;23.40;15.73;;;14.30;99.90;;;;;;5073922;28;20052;-69
2021/10/08 10:48:26;;;;;;;20.30;15.63;;;14.40;99.90;;;;;;5074112;28;20098;-69
2021/10/08 10:51:22;;;;;;;20.60;14.82;;;14.50;99.90;;;;;;5093714;28;20097;-69
2021/10/08 10:53:52;;;;;;;22.70;15.65;;;14.60;99.90;;;;;;5094438;28;20494;-68
2021/10/08 10:56:36;;;;;;;20.98;15.10;;;14.70;99.90;;;;;;5093973;28;20617;-69
2021/10/08 10:59:32;;;;;;;20.17;13.70;;;14.80;99.90;;;;;;5094463;28;20043;-71
2021/10/08 11:02:08;;;;;;;17.90;12.90;;;14.90;99.90;;;;;;5089083;28;20070;-69
2021/10/08 11:04:38;;;;;;;18.58;13.48;;;14.80;99.90;;;;;;5093336;28;20086;-69
2021/10/08 11:07:09;;;;;;;18.27;12.52;;;14.80;99.90;;;;;;5094288;28;20052;-69
2021/10/08 11:09:36;;;;;;;18.02;13.40;;;14.90;99.90;;;;;;5094275;28;20047;-69
2021/10/08 11:12:33;;;;;;;18.27;12.50;;;14.90;99.90;;;;;;5093350;28;20493;-69
2021/10/08 11:15:16;;;;;;;18.20;13.65;;;15.00;99.90;;;;;;5094871;28;20036;-69
2021/10/08 11:17:58;;;;;;;16.42;11.00;;;15.00;99.90;;;;;;5093327;28;20049;-69
2021/10/08 11:20:30;;;;;;;15.75;11.38;;;15.00;99.90;;;;;;5094344;28;20040;-69
2021/10/08 11:22:58;;;;;;;14.38;11.60;;;15.10;99.90;;;;;;5094067;28;20579;-69
2021/10/08 11:25:24;;;;;;;15.63;10.98;;;15.10;99.90;;;;;;5094334;28;20040;-69
2021/10/08 11:27:50;;;;;;;13.35;10.57;;;15.20;99.90;;;;;;5094360;28;20562;-69
2021/10/08 11:30:17;;;;;;;15.38;9.18;;;15.30;99.90;;;;;;5093939;28;20035;-69
2021/10/08 11:32:50;;;;;;;13.85;10.15;;;15.30;99.90;;;;;;5094204;28;20036;-69
2021/10/08 11:35:20;;;;;;;13.43;9.75;;;15.30;99.90;;;;;;5093830;28;20039;-69
2021/10/08 11:37:47;;;;;;;12.88;8.30;;;15.40;99.90;;;;;;5093813;28;20044;-69
2021/10/08 11:40:26;;;;;;;11.98;8.90;;;15.50;99.90;;;;;;5092360;28;20484;-69
2021/10/08 11:42:57;;;;;;;12.60;8.73;;;15.50;99.90;;;;;;5093731;28;20496;-69
2021/10/08 11:45:57;;;;;;;12.32;8.90;;;15.50;99.90;;;;;;5093904;28;20055;-69
2021/10/08 11:48:31;;;;;;;13.45;10.07;;;15.60;99.90;;;;;;5093815;28;20058;-69
2021/10/08 11:51:06;;;;;;;12.68;10.13;;;15.50;99.90;;;;;;5094005;28;20123;-69
2021/10/08 11:53:44;;;;;;;12.80;9.02;;;15.50;99.90;;;;;;5094009;28;20055;-69
2021/10/08 11:56:32;;;;;;;13.57;10.57;;;15.70;99.90;;;;;;5092628;28;20051;-69
2021/10/08 11:58:58;;;;;;;14.55;9.27;;;15.70;99.90;;;;;;5093251;28;20036;-69
2021/10/08 12:01:28;;;;;;;10.07;7.78;;;15.70;99.90;;;;;;5093737;28;20058;-69
2021/10/08 12:03:53;;;;;;;11.80;8.45;;;15.70;99.90;;;;;;5093754;28;20043;-68
2021/10/08 12:06:24;;;;;;;10.68;8.18;;;15.70;99.90;;;;;;5093675;28;20123;-69
2021/10/08 12:08:50;;;;;;;9.35;7.50;;;15.70;99.90;;;;;;5093634;28;20047;-69
2021/10/08 12:11:16;;;;;;;10.77;8.27;;;15.80;99.90;;;;;;5093779;28;20040;-69
2021/10/08 12:13:45;;;;;;;10.63;7.60;;;15.80;99.90;;;;;;5093913;28;20148;-69
2021/10/08 12:16:16;;;;;;;12.38;7.80;;;15.90;99.90;;;;;;5093186;28;20400;-69
2021/10/08 12:19:00;;;;;;;10.98;7.95;;;16.00;99.90;;;;;;5093180;28;20035;-69
2021/10/08 12:21:29;;;;;;;13.57;8.27;;;16.00;99.90;;;;;;5092365;28;20044;-69
2021/10/08 12:24:00;;;;;;;10.77;8.07;;;16.00;99.90;;;;;;5093436;28;20039;-69
2021/10/08 12:26:26;;;;;;;10.90;8.15;;;16.00;99.90;;;;;;5093645;28;20476;-69
2021/10/08 12:28:55;;;;;;;12.43;8.73;;;15.90;99.90;;;;;;5093083;28;20039;-69
2021/10/08 12:31:22;;;;;;;14.15;9.20;;;15.90;99.90;;;;;;5093412;28;20036;-69
2021/10/08 12:33:48;;;;;;;12.45;8.25;;;16.00;99.90;;;;;;5092202;28;20133;-69
2021/10/08 12:36:20;;;;;;;11.65;9.07;;;16.00;99.90;;;;;;5093367;28;20040;-69
2021/10/08 12:39:07;;;;;;;10.98;9.30;;;16.10;99.90;;;;;;5092921;28;20537;-69
2021/10/08 12:41:51;;;;;;;10.90;8.88;;;16.20;99.90;;;;;;5093248;28;20433;-69
2021/10/08 12:44:20;;;;;;;12.05;9.35;;;16.20;99.90;;;;;;5093179;28;20498;-69